Shelbyville, Indiana
Current Conditions -  °F | °C
As of 7:53 AM on Monday 20 Oct 2014 (Local Time) from KGEZ Reporting Station
Overcast Overcast  
Wind Chill: 45°   Ceiling: 9500
Heat Index: 49°   Visibility: 10mi
Dew Point: 44°   Wind: 10mph
Humidity: 83%   Direction: 180°S
Pressure: 29.96"   Gusts: NA
Location:  39.52°N, 85.78°W
Report Text: KGEZ 201153Z AUTO 18009KT 10SM OVC095 09/07 A2996 RMK AO2 RAB04E15 SLP146 P0000 60000 T00940067 10094 20083 56012
Loading
Personal Weather Stations






























Interactive Weather Map
Tropical Storm Tracking
New forecast layout! Learn more

10-Day Weather Forecast

Advertisements
Track Severe Weather on mobile